Holon, Israel
Current Conditions -  °F | °C
As of 7:50 PM on Saturday 25 Oct 2014 (Local Time) from LLSD Reporting Station
Clear Clear  
Wind Chill: 75°   Ceiling: Unl
Heat Index: 75°   Visibility: 6mi
Dew Point: 63°   Wind: 3mph
Humidity: 65%   Direction: NA
Pressure: 29.94"   Gusts: NA
Location:  32.02°N, 34.76°E
Report Text: LLSD 251650Z VRB03KT CAVOK 24/17 Q1014
Loading
Personal Weather Stations






























Interactive Weather Map
Tropical Storm Tracking
New forecast layout! Learn more

10-Day Weather Forecast

Advertisements
Track Severe Weather on mobile